CheckWX is a tool to help pilots better visualize weather data.  It is not intended as a substitute for an official pre-flight weather briefing.

10:28:05 UTC

KBBG METAR
Branson Airport
Branson, Missouri, USA
Current

33 mins ago

KBBG 260955Z AUTO 00000KT 1 1/4SM BR CLR 05/05 A3032 RMK AO2
Observed
Mar-26 @ 09:55 UTC
Visibility
1 1/4 SM
Flight Rules
IFR
Conditions
Mist
Cloud Levels
  • Clear skies
Temperature
C / 41°F
Dewpoint
C / 41°F
Humidity
100%
Altimeter
30.32" Hg
Pressure
1026.72 hPa
Previous

53 mins ago

KBBG 260935Z AUTO 00000KT 2SM BR CLR 05/05 A3032 RMK AO2
Observed
Mar-26 @ 09:35 UTC
Visibility
2 SM
Flight Rules
IFR
Conditions
Mist
Cloud Levels
  • Clear skies
Temperature
C / 41°F
Dewpoint
C / 41°F
Humidity
100%
Altimeter
30.32" Hg
Pressure
1026.72 hPa
Previous

1 hour ago

KBBG 260915Z AUTO 00000KT 2 1/2SM BR CLR 05/05 A3031 RMK AO2
Observed
Mar-26 @ 09:15 UTC
Visibility
2 1/2 SM
Flight Rules
IFR
Conditions
Mist
Cloud Levels
  • Clear skies
Temperature
C / 41°F
Dewpoint
C / 41°F
Humidity
100%
Altimeter
30.31" Hg
Pressure
1026.42 hPa